sensor_id;sensor_type;location;lat;lon;timestamp;pressure;altitude;pressure_sealevel;temperature;humidity
52855;BME280;38719;51.418;7.286;2023-07-20T00:02:09;99631.50;;;18.95;69.75
52855;BME280;38719;51.418;7.286;2023-07-20T00:04:37;99632.47;;;18.94;69.74
52855;BME280;38719;51.418;7.286;2023-07-20T00:07:05;99632.69;;;19.03;70.13
52855;BME280;38719;51.418;7.286;2023-07-20T00:09:32;99625.88;;;18.87;70.13
52855;BME280;38719;51.418;7.286;2023-07-20T00:12:00;99628.13;;;19.03;69.57
52855;BME280;38719;51.418;7.286;2023-07-20T00:14:29;99622.81;;;18.92;69.65
52855;BME280;38719;51.418;7.286;2023-07-20T00:16:58;99630.06;;;18.91;69.41
52855;BME280;38719;51.418;7.286;2023-07-20T00:19:26;99615.31;;;18.95;68.75
52855;BME280;38719;51.418;7.286;2023-07-20T00:21:54;99614.25;;;19.08;69.15
52855;BME280;38719;51.418;7.286;2023-07-20T00:24:23;99614.66;;;19.03;69.13
52855;BME280;38719;51.418;7.286;2023-07-20T00:26:50;99612.81;;;19.25;68.74
52855;BME280;38719;51.418;7.286;2023-07-20T00:29:18;99609.88;;;19.38;68.85
52855;BME280;38719;51.418;7.286;2023-07-20T00:31:47;99607.47;;;19.35;69.26
52855;BME280;38719;51.418;7.286;2023-07-20T00:34:17;99601.63;;;19.29;69.47
52855;BME280;38719;51.418;7.286;2023-07-20T00:36:45;99607.94;;;18.97;70.33
52855;BME280;38719;51.418;7.286;2023-07-20T00:39:12;99610.50;;;19.20;69.97
52855;BME280;38719;51.418;7.286;2023-07-20T00:41:40;99604.59;;;19.05;70.31
52855;BME280;38719;51.418;7.286;2023-07-20T00:44:08;99609.78;;;18.97;70.63
52855;BME280;38719;51.418;7.286;2023-07-20T00:46:35;99604.97;;;19.00;71.06
52855;BME280;38719;51.418;7.286;2023-07-20T00:49:04;99598.94;;;19.08;70.61
52855;BME280;38719;51.418;7.286;2023-07-20T00:51:33;99603.06;;;19.12;70.37
52855;BME280;38719;51.418;7.286;2023-07-20T00:54:01;99605.97;;;19.21;70.04
52855;BME280;38719;51.418;7.286;2023-07-20T00:56:29;99599.72;;;19.20;70.23
52855;BME280;38719;51.418;7.286;2023-07-20T00:58:57;99605.38;;;19.17;69.83
52855;BME280;38719;51.418;7.286;2023-07-20T01:01:25;99608.88;;;19.08;69.65
52855;BME280;38719;51.418;7.286;2023-07-20T01:03:52;99610.81;;;19.06;69.79
52855;BME280;38719;51.418;7.286;2023-07-20T01:06:29;99600.50;;;18.90;70.28
52855;BME280;38719;51.418;7.286;2023-07-20T01:09:02;99608.50;;;18.80;70.07
52855;BME280;38719;51.418;7.286;2023-07-20T01:11:36;99603.47;;;18.54;71.02
52855;BME280;38719;51.418;7.286;2023-07-20T01:14:05;99600.97;;;18.62;70.68
52855;BME280;38719;51.418;7.286;2023-07-20T01:16:33;99600.72;;;18.65;70.50
52855;BME280;38719;51.418;7.286;2023-07-20T01:19:01;99604.78;;;18.60;70.78
52855;BME280;38719;51.418;7.286;2023-07-20T01:21:34;99607.97;;;18.65;70.68
52855;BME280;38719;51.418;7.286;2023-07-20T01:27:11;99605.97;;;18.67;71.24
52855;BME280;38719;51.418;7.286;2023-07-20T01:30:14;99613.00;;;18.58;71.75
52855;BME280;38719;51.418;7.286;2023-07-20T01:32:46;99597.91;;;18.67;71.46
52855;BME280;38719;51.418;7.286;2023-07-20T01:35:16;99589.72;;;18.57;71.65
52855;BME280;38719;51.418;7.286;2023-07-20T01:37:46;99584.41;;;18.67;71.43
52855;BME280;38719;51.418;7.286;2023-07-20T01:40:14;99591.38;;;18.69;71.14
52855;BME280;38719;51.418;7.286;2023-07-20T01:42:44;99590.69;;;18.56;71.48
52855;BME280;38719;51.418;7.286;2023-07-20T01:45:12;99596.50;;;18.51;71.52
52855;BME280;38719;51.418;7.286;2023-07-20T01:47:40;99600.03;;;18.52;70.68
52855;BME280;38719;51.418;7.286;2023-07-20T01:50:09;99597.72;;;18.59;70.60
52855;BME280;38719;51.418;7.286;2023-07-20T01:52:37;99596.63;;;18.50;70.98
52855;BME280;38719;51.418;7.286;2023-07-20T01:55:06;99596.97;;;18.57;70.31
52855;BME280;38719;51.418;7.286;2023-07-20T01:57:33;99596.75;;;18.48;71.08
52855;BME280;38719;51.418;7.286;2023-07-20T02:00:01;99588.00;;;18.56;70.71
52855;BME280;38719;51.418;7.286;2023-07-20T02:02:29;99585.38;;;18.45;71.04
52855;BME280;38719;51.418;7.286;2023-07-20T02:04:57;99581.38;;;18.39;70.97
52855;BME280;38719;51.418;7.286;2023-07-20T02:07:26;99580.25;;;18.42;70.91
52855;BME280;38719;51.418;7.286;2023-07-20T02:09:53;99584.06;;;18.28;71.53
52855;BME280;38719;51.418;7.286;2023-07-20T02:12:21;99584.03;;;17.95;72.34
52855;BME280;38719;51.418;7.286;2023-07-20T02:14:49;99581.88;;;17.66;73.38
52855;BME280;38719;51.418;7.286;2023-07-20T02:17:17;99578.81;;;17.71;73.40
52855;BME280;38719;51.418;7.286;2023-07-20T02:19:45;99579.63;;;18.06;72.27
52855;BME280;38719;51.418;7.286;2023-07-20T02:22:15;99575.31;;;18.03;72.25
52855;BME280;38719;51.418;7.286;2023-07-20T02:24:45;99582.28;;;18.17;72.02
52855;BME280;38719;51.418;7.286;2023-07-20T02:27:12;99583.00;;;18.19;72.05
52855;BME280;38719;51.418;7.286;2023-07-20T02:29:40;99580.63;;;18.37;71.16
52855;BME280;38719;51.418;7.286;2023-07-20T02:32:08;99586.72;;;18.07;73.03
52855;BME280;38719;51.418;7.286;2023-07-20T02:34:37;99592.09;;;18.18;72.60
52855;BME280;38719;51.418;7.286;2023-07-20T02:37:05;99585.47;;;18.22;72.88
52855;BME280;38719;51.418;7.286;2023-07-20T02:39:35;99579.22;;;18.10;73.26
52855;BME280;38719;51.418;7.286;2023-07-20T02:42:05;99581.81;;;18.12;72.78
52855;BME280;38719;51.418;7.286;2023-07-20T02:44:33;99583.56;;;18.34;72.69
52855;BME280;38719;51.418;7.286;2023-07-20T02:47:00;99585.69;;;18.19;72.99
52855;BME280;38719;51.418;7.286;2023-07-20T02:49:28;99593.50;;;18.33;72.73
52855;BME280;38719;51.418;7.286;2023-07-20T02:51:56;99590.06;;;18.31;72.83
52855;BME280;38719;51.418;7.286;2023-07-20T02:54:24;99593.22;;;18.48;72.22
52855;BME280;38719;51.418;7.286;2023-07-20T02:56:51;99594.19;;;18.47;72.51
52855;BME280;38719;51.418;7.286;2023-07-20T02:59:21;99600.19;;;18.50;73.33
52855;BME280;38719;51.418;7.286;2023-07-20T03:01:48;99599.59;;;18.68;72.27
52855;BME280;38719;51.418;7.286;2023-07-20T03:04:16;99600.59;;;18.67;72.72
52855;BME280;38719;51.418;7.286;2023-07-20T03:06:43;99618.06;;;18.51;72.77
52855;BME280;38719;51.418;7.286;2023-07-20T03:09:11;99608.13;;;18.52;73.19
52855;BME280;38719;51.418;7.286;2023-07-20T03:11:39;99606.56;;;18.49;73.38
52855;BME280;38719;51.418;7.286;2023-07-20T03:14:06;99604.75;;;18.39;73.99
52855;BME280;38719;51.418;7.286;2023-07-20T03:16:35;99605.44;;;18.52;73.23
52855;BME280;38719;51.418;7.286;2023-07-20T03:19:03;99606.94;;;18.45;74.14
52855;BME280;38719;51.418;7.286;2023-07-20T03:21:31;99602.38;;;18.57;73.95
52855;BME280;38719;51.418;7.286;2023-07-20T03:23:58;99603.16;;;18.68;72.91
52855;BME280;38719;51.418;7.286;2023-07-20T03:26:26;99607.47;;;18.71;72.76
52855;BME280;38719;51.418;7.286;2023-07-20T03:28:53;99607.28;;;18.51;73.51
52855;BME280;38719;51.418;7.286;2023-07-20T03:31:21;99607.91;;;18.44;73.56
52855;BME280;38719;51.418;7.286;2023-07-20T03:33:50;99608.28;;;18.50;73.96
52855;BME280;38719;51.418;7.286;2023-07-20T03:36:17;99613.84;;;18.26;74.45
52855;BME280;38719;51.418;7.286;2023-07-20T03:38:46;99616.28;;;18.41;73.76
52855;BME280;38719;51.418;7.286;2023-07-20T03:41:13;99620.84;;;18.17;74.64
52855;BME280;38719;51.418;7.286;2023-07-20T03:43:42;99615.06;;;18.33;73.70
52855;BME280;38719;51.418;7.286;2023-07-20T03:46:10;99616.28;;;18.41;74.37
52855;BME280;38719;51.418;7.286;2023-07-20T03:48:37;99619.00;;;18.29;73.98
52855;BME280;38719;51.418;7.286;2023-07-20T03:51:06;99619.94;;;18.40;74.10
52855;BME280;38719;51.418;7.286;2023-07-20T03:53:34;99615.53;;;18.39;73.81
52855;BME280;38719;51.418;7.286;2023-07-20T03:56:02;99616.00;;;18.44;74.10
52855;BME280;38719;51.418;7.286;2023-07-20T03:58:29;99626.06;;;18.42;74.28
52855;BME280;38719;51.418;7.286;2023-07-20T04:00:58;99619.75;;;18.64;73.45
52855;BME280;38719;51.418;7.286;2023-07-20T04:03:26;99630.38;;;18.65;73.57
52855;BME280;38719;51.418;7.286;2023-07-20T04:05:54;99623.22;;;18.76;73.02
52855;BME280;38719;51.418;7.286;2023-07-20T04:08:24;99619.78;;;18.52;73.96
52855;BME280;38719;51.418;7.286;2023-07-20T04:10:52;99624.59;;;18.49;74.48
52855;BME280;38719;51.418;7.286;2023-07-20T04:13:19;99634.75;;;18.45;74.03
52855;BME280;38719;51.418;7.286;2023-07-20T04:15:47;99634.84;;;18.55;73.96
52855;BME280;38719;51.418;7.286;2023-07-20T04:18:14;99634.34;;;18.50;73.58
52855;BME280;38719;51.418;7.286;2023-07-20T04:20:42;99630.03;;;18.26;74.71
52855;BME280;38719;51.418;7.286;2023-07-20T04:23:11;99629.50;;;18.32;74.46
52855;BME280;38719;51.418;7.286;2023-07-20T04:25:40;99630.03;;;18.26;74.40
52855;BME280;38719;51.418;7.286;2023-07-20T04:28:08;99628.53;;;18.33;74.12
52855;BME280;38719;51.418;7.286;2023-07-20T04:30:37;99630.94;;;18.48;74.20
52855;BME280;38719;51.418;7.286;2023-07-20T04:33:05;99638.31;;;18.46;73.62
52855;BME280;38719;51.418;7.286;2023-07-20T04:35:47;99645.63;;;18.55;73.12
52855;BME280;38719;51.418;7.286;2023-07-20T04:38:15;99652.91;;;18.76;72.97
52855;BME280;38719;51.418;7.286;2023-07-20T04:40:47;99644.34;;;18.71;73.03
52855;BME280;38719;51.418;7.286;2023-07-20T04:43:16;99648.19;;;18.57;73.52
52855;BME280;38719;51.418;7.286;2023-07-20T04:45:44;99649.03;;;18.57;73.44
52855;BME280;38719;51.418;7.286;2023-07-20T04:48:14;99653.47;;;18.58;73.55
52855;BME280;38719;51.418;7.286;2023-07-20T04:50:42;99644.41;;;18.80;72.57
52855;BME280;38719;51.418;7.286;2023-07-20T04:53:11;99651.97;;;18.65;73.19
52855;BME280;38719;51.418;7.286;2023-07-20T04:55:39;99656.38;;;18.66;73.16
52855;BME280;38719;51.418;7.286;2023-07-20T04:58:09;99661.31;;;18.61;73.44
52855;BME280;38719;51.418;7.286;2023-07-20T05:00:38;99658.63;;;18.50;73.65
52855;BME280;38719;51.418;7.286;2023-07-20T05:03:05;99661.44;;;18.48;74.34
52855;BME280;38719;51.418;7.286;2023-07-20T05:05:33;99658.53;;;18.51;73.99
52855;BME280;38719;51.418;7.286;2023-07-20T05:08:00;99658.84;;;18.58;73.56
52855;BME280;38719;51.418;7.286;2023-07-20T05:10:28;99655.22;;;18.48;74.22
52855;BME280;38719;51.418;7.286;2023-07-20T05:12:56;99656.16;;;18.58;74.38
52855;BME280;38719;51.418;7.286;2023-07-20T05:15:25;99658.16;;;18.45;74.34
52855;BME280;38719;51.418;7.286;2023-07-20T05:17:52;99655.19;;;18.59;74.11
52855;BME280;38719;51.418;7.286;2023-07-20T05:20:20;99660.75;;;18.79;73.28
52855;BME280;38719;51.418;7.286;2023-07-20T05:22:48;99656.53;;;18.86;72.71
52855;BME280;38719;51.418;7.286;2023-07-20T05:25:15;99660.88;;;19.10;72.12
52855;BME280;38719;51.418;7.286;2023-07-20T05:27:45;99667.78;;;19.03;72.16
52855;BME280;38719;51.418;7.286;2023-07-20T05:30:13;99665.06;;;19.03;72.54
52855;BME280;38719;51.418;7.286;2023-07-20T05:32:42;99672.03;;;18.73;73.65
52855;BME280;38719;51.418;7.286;2023-07-20T05:35:11;99665.31;;;18.99;73.11
52855;BME280;38719;51.418;7.286;2023-07-20T05:37:40;99667.72;;;18.81;73.18
52855;BME280;38719;51.418;7.286;2023-07-20T05:40:08;99665.47;;;18.87;72.54
52855;BME280;38719;51.418;7.286;2023-07-20T05:42:38;99673.25;;;18.68;73.51
52855;BME280;38719;51.418;7.286;2023-07-20T05:45:06;99676.69;;;18.71;72.84
52855;BME280;38719;51.418;7.286;2023-07-20T05:47:34;99678.22;;;18.84;73.75
52855;BME280;38719;51.418;7.286;2023-07-20T05:50:04;99677.59;;;19.04;72.25
52855;BME280;38719;51.418;7.286;2023-07-20T05:52:32;99683.22;;;19.00;72.54
52855;BME280;38719;51.418;7.286;2023-07-20T05:54:59;99678.09;;;18.97;71.03
52855;BME280;38719;51.418;7.286;2023-07-20T05:57:27;99685.84;;;18.91;71.78
52855;BME280;38719;51.418;7.286;2023-07-20T05:59:54;99693.78;;;19.04;71.41
52855;BME280;38719;51.418;7.286;2023-07-20T06:02:22;99693.06;;;18.90;72.48
52855;BME280;38719;51.418;7.286;2023-07-20T06:04:49;99688.69;;;18.78;70.99
52855;BME280;38719;51.418;7.286;2023-07-20T06:07:18;99691.63;;;18.75;70.70
52855;BME280;38719;51.418;7.286;2023-07-20T06:09:46;99693.09;;;18.79;71.12
52855;BME280;38719;51.418;7.286;2023-07-20T06:12:14;99699.72;;;18.86;70.73
52855;BME280;38719;51.418;7.286;2023-07-20T06:14:41;99705.09;;;18.97;71.15
52855;BME280;38719;51.418;7.286;2023-07-20T06:17:09;99707.06;;;18.84;70.42
52855;BME280;38719;51.418;7.286;2023-07-20T06:19:36;99705.94;;;18.98;71.20
52855;BME280;38719;51.418;7.286;2023-07-20T06:22:05;99709.38;;;18.89;70.05
52855;BME280;38719;51.418;7.286;2023-07-20T06:24:33;99710.63;;;18.96;70.14
52855;BME280;38719;51.418;7.286;2023-07-20T06:27:01;99710.22;;;19.00;69.22
52855;BME280;38719;51.418;7.286;2023-07-20T06:29:29;99717.13;;;18.82;71.19
52855;BME280;38719;51.418;7.286;2023-07-20T06:31:57;99717.13;;;18.82;70.96
52855;BME280;38719;51.418;7.286;2023-07-20T06:34:24;99721.00;;;19.00;71.13
52855;BME280;38719;51.418;7.286;2023-07-20T06:36:52;99723.84;;;18.99;70.42
52855;BME280;38719;51.418;7.286;2023-07-20T06:39:19;99725.63;;;19.10;70.59
52855;BME280;38719;51.418;7.286;2023-07-20T06:41:52;99725.97;;;19.16;69.70
52855;BME280;38719;51.418;7.286;2023-07-20T06:44:21;99722.66;;;19.13;71.05
52855;BME280;38719;51.418;7.286;2023-07-20T06:46:49;99717.78;;;19.07;69.42
52855;BME280;38719;51.418;7.286;2023-07-20T06:49:24;99713.53;;;19.25;69.82
52855;BME280;38719;51.418;7.286;2023-07-20T06:51:52;99714.72;;;19.32;69.39
52855;BME280;38719;51.418;7.286;2023-07-20T06:54:20;99710.19;;;19.33;68.06
52855;BME280;38719;51.418;7.286;2023-07-20T06:56:49;99712.94;;;19.22;68.85
52855;BME280;38719;51.418;7.286;2023-07-20T06:59:38;99712.81;;;19.23;67.81
52855;BME280;38719;51.418;7.286;2023-07-20T07:02:07;99723.41;;;19.15;67.37
52855;BME280;38719;51.418;7.286;2023-07-20T07:04:40;99716.16;;;19.37;67.62
52855;BME280;38719;51.418;7.286;2023-07-20T07:07:08;99721.56;;;19.37;67.09
52855;BME280;38719;51.418;7.286;2023-07-20T07:09:36;99728.22;;;19.54;67.39
52855;BME280;38719;51.418;7.286;2023-07-20T07:12:05;99717.16;;;19.57;68.45
52855;BME280;38719;51.418;7.286;2023-07-20T07:14:32;99724.19;;;19.69;66.32
52855;BME280;38719;51.418;7.286;2023-07-20T07:17:02;99719.41;;;19.52;68.50
52855;BME280;38719;51.418;7.286;2023-07-20T07:19:31;99732.84;;;19.42;68.78
52855;BME280;38719;51.418;7.286;2023-07-20T07:21:58;99734.88;;;19.28;67.10
52855;BME280;38719;51.418;7.286;2023-07-20T07:24:26;99739.28;;;19.29;67.80
52855;BME280;38719;51.418;7.286;2023-07-20T07:26:59;99741.22;;;19.06;67.76
52855;BME280;38719;51.418;7.286;2023-07-20T07:29:27;99735.38;;;19.01;68.99
52855;BME280;38719;51.418;7.286;2023-07-20T07:31:55;99738.06;;;19.01;67.66
52855;BME280;38719;51.418;7.286;2023-07-20T07:34:24;99745.19;;;19.02;66.84
52855;BME280;38719;51.418;7.286;2023-07-20T07:36:52;99739.25;;;19.08;67.73
52855;BME280;38719;51.418;7.286;2023-07-20T07:39:20;99741.88;;;18.98;67.30
52855;BME280;38719;51.418;7.286;2023-07-20T07:41:50;99742.06;;;19.07;68.36
52855;BME280;38719;51.418;7.286;2023-07-20T07:44:19;99742.31;;;19.36;68.33
52855;BME280;38719;51.418;7.286;2023-07-20T07:46:47;99735.78;;;19.39;66.17
52855;BME280;38719;51.418;7.286;2023-07-20T07:49:15;99733.53;;;19.44;65.27
52855;BME280;38719;51.418;7.286;2023-07-20T07:51:44;99740.72;;;19.33;65.66
52855;BME280;38719;51.418;7.286;2023-07-20T07:54:12;99744.16;;;19.36;64.79
52855;BME280;38719;51.418;7.286;2023-07-20T07:56:40;99751.75;;;19.42;64.59
52855;BME280;38719;51.418;7.286;2023-07-20T07:59:07;99751.97;;;19.39;65.12
52855;BME280;38719;51.418;7.286;2023-07-20T08:01:35;99760.44;;;19.13;65.46
52855;BME280;38719;51.418;7.286;2023-07-20T08:04:03;99764.69;;;19.27;65.57
52855;BME280;38719;51.418;7.286;2023-07-20T08:06:31;99759.03;;;19.51;65.52
52855;BME280;38719;51.418;7.286;2023-07-20T08:09:00;99756.09;;;19.54;65.27
52855;BME280;38719;51.418;7.286;2023-07-20T08:11:29;99764.13;;;19.65;64.43
52855;BME280;38719;51.418;7.286;2023-07-20T08:13:59;99760.81;;;19.41;63.05
52855;BME280;38719;51.418;7.286;2023-07-20T08:16:27;99769.38;;;19.67;64.22
52855;BME280;38719;51.418;7.286;2023-07-20T08:18:55;99764.28;;;19.74;62.61
52855;BME280;38719;51.418;7.286;2023-07-20T08:21:23;99763.25;;;20.07;62.56
52855;BME280;38719;51.418;7.286;2023-07-20T08:23:51;99761.13;;;20.42;62.78
52855;BME280;38719;51.418;7.286;2023-07-20T08:26:20;99764.47;;;20.34;60.38
52855;BME280;38719;51.418;7.286;2023-07-20T08:28:49;99767.88;;;20.26;60.92
52855;BME280;38719;51.418;7.286;2023-07-20T08:31:17;99771.81;;;20.12;62.59
52855;BME280;38719;51.418;7.286;2023-07-20T08:33:44;99770.38;;;20.18;63.05
52855;BME280;38719;51.418;7.286;2023-07-20T08:36:12;99781.00;;;20.31;62.82
52855;BME280;38719;51.418;7.286;2023-07-20T08:38:39;99783.84;;;20.29;62.67
52855;BME280;38719;51.418;7.286;2023-07-20T08:41:08;99777.81;;;20.16;60.83
52855;BME280;38719;51.418;7.286;2023-07-20T08:43:42;99776.13;;;20.25;61.20
52855;BME280;38719;51.418;7.286;2023-07-20T08:46:10;99778.44;;;20.29;60.76
52855;BME280;38719;51.418;7.286;2023-07-20T08:48:39;99774.13;;;20.68;59.99
52855;BME280;38719;51.418;7.286;2023-07-20T08:51:08;99772.78;;;20.83;59.83
52855;BME280;38719;51.418;7.286;2023-07-20T08:53:37;99775.75;;;20.90;58.05
52855;BME280;38719;51.418;7.286;2023-07-20T08:56:06;99773.91;;;20.81;59.11
52855;BME280;38719;51.418;7.286;2023-07-20T08:58:39;99778.31;;;21.01;57.86
52855;BME280;38719;51.418;7.286;2023-07-20T09:01:07;99775.50;;;21.13;57.91
52855;BME280;38719;51.418;7.286;2023-07-20T09:03:35;99780.38;;;21.29;57.86
52855;BME280;38719;51.418;7.286;2023-07-20T09:06:05;99782.66;;;21.14;58.16
52855;BME280;38719;51.418;7.286;2023-07-20T09:08:33;99781.78;;;21.33;57.72
52855;BME280;38719;51.418;7.286;2023-07-20T09:11:01;99780.63;;;21.35;56.74
52855;BME280;38719;51.418;7.286;2023-07-20T09:13:28;99777.78;;;21.37;57.58
52855;BME280;38719;51.418;7.286;2023-07-20T09:15:58;99774.22;;;21.36;57.37
52855;BME280;38719;51.418;7.286;2023-07-20T09:18:27;99777.19;;;21.23;57.21
52855;BME280;38719;51.418;7.286;2023-07-20T09:20:58;99771.66;;;21.35;55.95
52855;BME280;38719;51.418;7.286;2023-07-20T09:23:31;99778.91;;;21.54;55.53
52855;BME280;38719;51.418;7.286;2023-07-20T09:25:59;99770.66;;;21.65;54.76
52855;BME280;38719;51.418;7.286;2023-07-20T09:28:27;99776.78;;;21.67;54.63
52855;BME280;38719;51.418;7.286;2023-07-20T09:30:56;99779.44;;;21.97;54.13
52855;BME280;38719;51.418;7.286;2023-07-20T09:33:25;99778.06;;;21.44;53.15
52855;BME280;38719;51.418;7.286;2023-07-20T09:35:53;99770.75;;;21.93;54.44
52855;BME280;38719;51.418;7.286;2023-07-20T09:38:26;99771.44;;;22.33;53.55
52855;BME280;38719;51.418;7.286;2023-07-20T09:40:55;99775.22;;;22.60;52.73
52855;BME280;38719;51.418;7.286;2023-07-20T09:43:28;99773.94;;;22.54;53.66
52855;BME280;38719;51.418;7.286;2023-07-20T09:45:58;99774.00;;;22.44;53.13
52855;BME280;38719;51.418;7.286;2023-07-20T09:48:26;99774.44;;;22.02;53.35
52855;BME280;38719;51.418;7.286;2023-07-20T09:50:57;99775.81;;;22.16;52.21
52855;BME280;38719;51.418;7.286;2023-07-20T09:53:25;99775.59;;;21.89;50.96
52855;BME280;38719;51.418;7.286;2023-07-20T09:55:53;99771.78;;;21.72;50.04
52855;BME280;38719;51.418;7.286;2023-07-20T09:58:21;99778.00;;;21.93;51.38
52855;BME280;38719;51.418;7.286;2023-07-20T10:00:51;99764.97;;;22.06;50.47
52855;BME280;38719;51.418;7.286;2023-07-20T10:03:22;99765.50;;;22.19;50.79
52855;BME280;38719;51.418;7.286;2023-07-20T10:05:54;99766.25;;;22.49;49.22
52855;BME280;38719;51.418;7.286;2023-07-20T10:08:24;99766.00;;;22.70;49.73
52855;BME280;38719;51.418;7.286;2023-07-20T10:10:57;99765.25;;;22.50;49.62
52855;BME280;38719;51.418;7.286;2023-07-20T10:13:26;99766.75;;;22.91;47.34
52855;BME280;38719;51.418;7.286;2023-07-20T10:15:59;99773.16;;;23.08;46.94
52855;BME280;38719;51.418;7.286;2023-07-20T10:18:34;99771.41;;;22.98;47.26
52855;BME280;38719;51.418;7.286;2023-07-20T10:21:06;99771.06;;;22.83;46.72
52855;BME280;38719;51.418;7.286;2023-07-20T10:23:38;99769.69;;;23.15;48.16
52855;BME280;38719;51.418;7.286;2023-07-20T10:26:07;99770.56;;;23.16;46.60
52855;BME280;38719;51.418;7.286;2023-07-20T10:28:35;99764.91;;;23.45;47.03
52855;BME280;38719;51.418;7.286;2023-07-20T10:31:03;99767.81;;;23.70;45.42
52855;BME280;38719;51.418;7.286;2023-07-20T10:33:34;99766.19;;;23.59;45.89
52855;BME280;38719;51.418;7.286;2023-07-20T10:36:02;99769.69;;;23.52;45.74
52855;BME280;38719;51.418;7.286;2023-07-20T10:38:38;99763.56;;;23.49;44.46
52855;BME280;38719;51.418;7.286;2023-07-20T10:41:15;99765.81;;;23.36;43.29
52855;BME280;38719;51.418;7.286;2023-07-20T10:43:43;99759.13;;;23.48;43.72
52855;BME280;38719;51.418;7.286;2023-07-20T10:46:11;99757.50;;;23.56;42.68
52855;BME280;38719;51.418;7.286;2023-07-20T10:49:00;99755.91;;;23.71;44.07
52855;BME280;38719;51.418;7.286;2023-07-20T10:51:28;99756.13;;;23.33;43.46
52855;BME280;38719;51.418;7.286;2023-07-20T10:53:56;99758.25;;;23.22;45.45
52855;BME280;38719;51.418;7.286;2023-07-20T10:56:26;99762.81;;;23.21;45.98
52855;BME280;38719;51.418;7.286;2023-07-20T10:58:57;99756.50;;;23.57;45.11
52855;BME280;38719;51.418;7.286;2023-07-20T11:01:28;99752.03;;;23.74;44.29
52855;BME280;38719;51.418;7.286;2023-07-20T11:03:58;99747.81;;;23.79;44.55
52855;BME280;38719;51.418;7.286;2023-07-20T11:06:33;99747.13;;;23.77;43.28
52855;BME280;38719;51.418;7.286;2023-07-20T11:09:06;99737.16;;;23.86;42.38
52855;BME280;38719;51.418;7.286;2023-07-20T11:11:38;99742.34;;;23.71;41.34
52855;BME280;38719;51.418;7.286;2023-07-20T11:14:07;99740.09;;;23.93;42.86
52855;BME280;38719;51.418;7.286;2023-07-20T11:16:38;99724.25;;;24.14;41.42
52855;BME280;38719;51.418;7.286;2023-07-20T11:19:13;99732.72;;;24.11;40.68
52855;BME280;38719;51.418;7.286;2023-07-20T11:22:04;99732.72;;;24.11;42.03
52855;BME280;38719;51.418;7.286;2023-07-20T11:24:34;99717.34;;;24.28;41.15
52855;BME280;38719;51.418;7.286;2023-07-20T11:27:02;99721.75;;;24.29;41.13
52855;BME280;38719;51.418;7.286;2023-07-20T11:29:29;99729.66;;;24.49;41.45
52855;BME280;38719;51.418;7.286;2023-07-20T11:32:00;99725.19;;;24.40;40.79
52855;BME280;38719;51.418;7.286;2023-07-20T11:34:31;99719.59;;;24.07;41.02
52855;BME280;38719;51.418;7.286;2023-07-20T11:37:00;99718.78;;;23.88;42.16
52855;BME280;38719;51.418;7.286;2023-07-20T11:39:31;99725.72;;;23.56;41.98
52855;BME280;38719;51.418;7.286;2023-07-20T11:41:59;99727.94;;;23.79;42.23
52855;BME280;38719;51.418;7.286;2023-07-20T11:44:27;99723.31;;;24.32;42.73
52855;BME280;38719;51.418;7.286;2023-07-20T11:47:03;99709.00;;;24.30;42.35
52855;BME280;38719;51.418;7.286;2023-07-20T11:49:34;99713.19;;;24.16;41.03
52855;BME280;38719;51.418;7.286;2023-07-20T11:52:04;99705.75;;;24.18;41.36
52855;BME280;38719;51.418;7.286;2023-07-20T11:54:34;99715.81;;;24.34;40.18
52855;BME280;38719;51.418;7.286;2023-07-20T11:57:02;99713.25;;;24.75;41.73
52855;BME280;38719;51.418;7.286;2023-07-20T11:59:30;99715.31;;;24.90;39.72
52855;BME280;38719;51.418;7.286;2023-07-20T12:01:58;99709.41;;;25.11;38.42
52855;BME280;38719;51.418;7.286;2023-07-20T12:04:29;99702.75;;;25.05;37.91
52855;BME280;38719;51.418;7.286;2023-07-20T12:06:57;99707.31;;;24.97;40.27
52855;BME280;38719;51.418;7.286;2023-07-20T12:09:24;99705.59;;;24.79;39.62
52855;BME280;38719;51.418;7.286;2023-07-20T12:12:09;99699.66;;;24.75;40.39
52855;BME280;38719;51.418;7.286;2023-07-20T12:14:37;99702.38;;;24.92;39.05
52855;BME280;38719;51.418;7.286;2023-07-20T12:17:08;99700.53;;;25.50;39.09
52855;BME280;38719;51.418;7.286;2023-07-20T12:19:38;99698.50;;;25.61;39.54
52855;BME280;38719;51.418;7.286;2023-07-20T12:22:06;99708.88;;;25.49;38.18
52855;BME280;38719;51.418;7.286;2023-07-20T12:24:33;99703.75;;;25.29;39.19
52855;BME280;38719;51.418;7.286;2023-07-20T12:27:03;99699.69;;;25.00;37.49
52855;BME280;38719;51.418;7.286;2023-07-20T12:29:31;99704.59;;;24.97;38.04
52855;BME280;38719;51.418;7.286;2023-07-20T12:32:02;99704.13;;;25.26;39.01
52855;BME280;38719;51.418;7.286;2023-07-20T12:34:30;99689.63;;;25.58;38.61
52855;BME280;38719;51.418;7.286;2023-07-20T12:36:58;99695.91;;;25.34;39.00
52855;BME280;38719;51.418;7.286;2023-07-20T12:39:25;99694.53;;;24.81;37.60
52855;BME280;38719;51.418;7.286;2023-07-20T12:41:53;99695.09;;;25.17;37.34
52855;BME280;38719;51.418;7.286;2023-07-20T12:44:22;99689.78;;;25.16;36.45
52855;BME280;38719;51.418;7.286;2023-07-20T12:46:50;99687.75;;;24.76;36.48
52855;BME280;38719;51.418;7.286;2023-07-20T12:49:17;99686.25;;;25.40;38.99
52855;BME280;38719;51.418;7.286;2023-07-20T12:51:45;99683.34;;;25.58;36.80
52855;BME280;38719;51.418;7.286;2023-07-20T12:54:13;99682.59;;;25.81;37.75
52855;BME280;38719;51.418;7.286;2023-07-20T12:56:40;99676.25;;;25.88;35.53
52855;BME280;38719;51.418;7.286;2023-07-20T12:59:11;99674.50;;;26.04;35.86
52855;BME280;38719;51.418;7.286;2023-07-20T13:01:40;99673.31;;;25.98;33.61
52855;BME280;38719;51.418;7.286;2023-07-20T13:04:10;99679.53;;;25.75;35.21
52855;BME280;38719;51.418;7.286;2023-07-20T13:06:39;99672.44;;;25.58;35.95
52855;BME280;38719;51.418;7.286;2023-07-20T13:09:08;99669.72;;;25.33;36.54
52855;BME280;38719;51.418;7.286;2023-07-20T13:11:35;99680.78;;;25.15;36.92
52855;BME280;38719;51.418;7.286;2023-07-20T13:14:03;99669.03;;;25.15;37.86